createdAt,value
2018-06-11T00:00:57.854Z,15.93
2018-06-11T00:03:26.075Z,13.07
2018-06-11T00:05:54.280Z,13.53
2018-06-11T00:08:22.503Z,17.13
2018-06-11T00:10:50.712Z,15.10
2018-06-11T00:13:18.966Z,14.33
2018-06-11T00:15:47.187Z,17.03
2018-06-11T00:18:15.399Z,16.60
2018-06-11T00:20:43.624Z,12.67
2018-06-11T00:23:11.861Z,16.80
2018-06-11T00:25:40.066Z,15.23
2018-06-11T00:28:08.296Z,17.17
2018-06-11T00:30:36.552Z,14.77
2018-06-11T00:33:04.848Z,14.50
2018-06-11T00:35:33.075Z,19.23
2018-06-11T00:38:01.285Z,14.60
2018-06-11T00:40:29.517Z,14.30
2018-06-11T00:42:57.732Z,14.83
2018-06-11T00:45:25.963Z,15.50
2018-06-11T00:47:54.188Z,13.37
2018-06-11T00:50:22.389Z,19.97
2018-06-11T00:52:51.577Z,15.17
2018-06-11T00:55:19.785Z,17.70
2018-06-11T00:57:47.988Z,13.53
2018-06-11T01:00:16.179Z,14.70
2018-06-11T01:02:44.395Z,13.53
2018-06-11T01:05:12.618Z,15.83
2018-06-11T01:07:40.808Z,11.73
2018-06-11T01:10:09.020Z,16.07
2018-06-11T01:12:37.248Z,13.90
2018-06-11T01:15:05.500Z,13.40
2018-06-11T01:17:33.699Z,14.73
2018-06-11T01:20:01.946Z,12.80
2018-06-11T01:22:30.148Z,14.93
2018-06-11T01:24:58.348Z,12.77
2018-06-11T01:27:26.602Z,16.00
2018-06-11T01:32:31.956Z,16.47
2018-06-11T01:35:00.144Z,15.67
2018-06-11T01:37:28.372Z,11.93
2018-06-11T01:39:56.589Z,13.43
2018-06-11T01:42:24.825Z,14.90
2018-06-11T01:44:53.028Z,16.50
2018-06-11T01:47:21.253Z,15.43
2018-06-11T01:49:49.461Z,16.97
2018-06-11T01:52:17.716Z,14.63
2018-06-11T01:54:45.928Z,14.00
2018-06-11T01:57:14.140Z,16.30
2018-06-11T01:59:42.377Z,15.43
2018-06-11T02:02:10.587Z,15.70
2018-06-11T02:04:38.783Z,14.67
2018-06-11T02:07:07.004Z,13.83
2018-06-11T02:09:35.197Z,15.53
2018-06-11T02:12:03.439Z,17.80
2018-06-11T02:14:31.404Z,18.73
2018-06-11T02:16:59.655Z,17.57
2018-06-11T02:19:28.036Z,20.10
2018-06-11T02:21:56.240Z,16.47
2018-06-11T02:24:24.451Z,19.17
2018-06-11T02:26:52.676Z,19.83
2018-06-11T02:29:20.866Z,21.20
2018-06-11T02:31:49.085Z,17.47
2018-06-11T02:34:17.281Z,18.30
2018-06-11T02:36:45.525Z,18.50
2018-06-11T02:39:13.744Z,19.13
2018-06-11T02:41:41.956Z,18.93
2018-06-11T02:44:10.179Z,18.40
2018-06-11T02:46:38.369Z,18.93
2018-06-11T02:49:06.578Z,21.27
2018-06-11T02:51:34.789Z,22.67
2018-06-11T02:54:03.047Z,24.47
2018-06-11T02:56:31.325Z,23.97
2018-06-11T02:58:59.508Z,22.37
2018-06-11T03:01:27.727Z,25.13
2018-06-11T03:03:55.988Z,22.73
2018-06-11T03:06:24.181Z,20.80
2018-06-11T03:08:52.414Z,27.00
2018-06-11T03:11:20.644Z,26.03
2018-06-11T03:13:48.869Z,22.33
2018-06-11T03:16:17.084Z,20.50
2018-06-11T03:18:45.320Z,22.63
2018-06-11T03:21:13.548Z,21.70
2018-06-11T03:23:41.848Z,20.70
2018-06-11T03:26:10.021Z,28.00
2018-06-11T03:28:38.268Z,26.93
2018-06-11T03:31:06.561Z,24.47
2018-06-11T03:33:34.882Z,28.10
2018-06-11T03:36:03.089Z,27.80
2018-06-11T03:38:31.296Z,19.60
2018-06-11T03:40:59.520Z,23.60
2018-06-11T03:43:27.737Z,24.90
2018-06-11T03:45:55.974Z,19.83
2018-06-11T03:48:24.180Z,23.63
2018-06-11T03:50:52.390Z,22.87
2018-06-11T03:53:20.597Z,24.67
2018-06-11T03:55:48.796Z,22.90
2018-06-11T03:58:17.004Z,21.67
2018-06-11T04:00:45.221Z,21.70
2018-06-11T04:03:13.448Z,20.47
2018-06-11T04:05:41.669Z,20.27
2018-06-11T04:08:09.957Z,20.03
2018-06-11T04:10:38.199Z,23.07
2018-06-11T04:13:06.455Z,20.20
2018-06-11T04:15:34.660Z,21.20
2018-06-11T04:18:02.875Z,19.20
2018-06-11T04:20:31.075Z,21.97
2018-06-11T04:22:59.313Z,20.43
2018-06-11T04:25:27.517Z,19.20
2018-06-11T04:27:55.763Z,20.53
2018-06-11T04:30:24.049Z,16.73
2018-06-11T04:32:52.260Z,20.10
2018-06-11T04:35:20.481Z,17.63
2018-06-11T04:37:48.701Z,20.50
2018-06-11T04:40:16.892Z,22.43
2018-06-11T04:42:45.132Z,19.73
2018-06-11T04:45:13.382Z,23.57
2018-06-11T04:47:41.641Z,22.90
2018-06-11T04:50:09.849Z,23.93
2018-06-11T04:52:38.077Z,27.70
2018-06-11T04:55:06.342Z,25.33
2018-06-11T04:57:34.540Z,21.80
2018-06-11T05:00:02.761Z,23.50
2018-06-11T05:02:30.993Z,26.07
2018-06-11T05:04:59.220Z,28.90
2018-06-11T05:07:27.432Z,23.33
2018-06-11T05:09:55.640Z,27.27
2018-06-11T05:12:23.841Z,31.33
2018-06-11T05:14:52.061Z,23.97
2018-06-11T05:17:20.473Z,27.10
2018-06-11T05:19:48.676Z,25.13
2018-06-11T05:22:16.917Z,25.23
2018-06-11T05:24:45.168Z,24.20
2018-06-11T05:27:13.408Z,26.53
2018-06-11T05:29:41.612Z,26.73
2018-06-11T05:32:09.826Z,24.27
2018-06-11T05:34:38.414Z,23.17
2018-06-11T05:37:06.608Z,25.27
2018-06-11T05:39:35.137Z,27.97
2018-06-11T05:42:03.341Z,24.67
2018-06-11T05:44:31.681Z,25.40
2018-06-11T05:46:59.868Z,22.67
2018-06-11T05:49:28.111Z,26.47
2018-06-11T05:51:56.320Z,22.00
2018-06-11T05:54:24.520Z,21.17
2018-06-11T05:56:52.726Z,21.03
2018-06-11T05:59:20.944Z,21.93
2018-06-11T06:01:49.163Z,24.63
2018-06-11T06:04:17.424Z,23.33
2018-06-11T06:06:45.640Z,19.87
2018-06-11T06:09:13.591Z,22.70
2018-06-11T06:11:41.812Z,21.97
2018-06-11T06:14:10.062Z,17.97
2018-06-11T06:16:38.308Z,17.50
2018-06-11T06:19:06.517Z,16.20
2018-06-11T06:21:34.778Z,18.90
2018-06-11T06:24:02.997Z,18.03
2018-06-11T06:26:31.226Z,13.87
2018-06-11T06:28:59.438Z,16.00
2018-06-11T06:31:27.690Z,15.00
2018-06-11T06:33:55.900Z,16.17
2018-06-11T06:36:24.097Z,16.40
2018-06-11T06:38:52.309Z,14.57
2018-06-11T06:41:20.534Z,16.23
2018-06-11T06:43:48.728Z,15.63
2018-06-11T06:46:16.977Z,17.67
2018-06-11T06:48:45.179Z,14.47
2018-06-11T06:51:13.423Z,17.10
2018-06-11T06:53:41.706Z,16.57
2018-06-11T06:56:09.874Z,14.73
2018-06-11T06:58:38.116Z,17.10
2018-06-11T07:01:06.311Z,15.70
2018-06-11T07:03:34.516Z,13.90
2018-06-11T07:06:02.716Z,16.90
2018-06-11T07:08:31.445Z,13.63
2018-06-11T07:10:59.663Z,12.43
2018-06-11T07:13:27.860Z,14.53
2018-06-11T07:15:56.080Z,13.27
2018-06-11T07:18:24.293Z,13.03
2018-06-11T07:20:52.503Z,10.97
2018-06-11T07:23:20.704Z,11.03
2018-06-11T07:25:48.944Z,10.90
2018-06-11T07:28:17.151Z,12.80
2018-06-11T07:30:45.390Z,10.40
2018-06-11T07:33:13.633Z,10.10
2018-06-11T07:35:41.852Z,10.77
2018-06-11T07:38:10.053Z,9.10
2018-06-11T07:40:38.256Z,9.43
2018-06-11T07:43:06.570Z,10.93
2018-06-11T07:45:34.757Z,8.93
2018-06-11T07:48:03.002Z,10.03
2018-06-11T07:50:31.222Z,11.13
2018-06-11T07:52:59.400Z,8.23
2018-06-11T07:55:27.609Z,7.70
2018-06-11T07:57:55.810Z,9.07
2018-06-11T08:00:24.006Z,8.53
2018-06-11T08:02:52.216Z,8.13
2018-06-11T08:05:20.420Z,7.73
2018-06-11T08:07:48.641Z,8.70
2018-06-11T08:10:16.824Z,8.17
2018-06-11T08:12:45.029Z,8.60
2018-06-11T08:15:13.237Z,7.73
2018-06-11T08:17:41.459Z,9.20
2018-06-11T08:20:09.411Z,7.47
2018-06-11T08:22:37.612Z,7.67
2018-06-11T08:25:05.833Z,7.83
2018-06-11T08:27:34.025Z,7.53
2018-06-11T08:30:02.237Z,7.03
2018-06-11T08:32:30.451Z,8.23
2018-06-11T08:34:58.663Z,8.20
2018-06-11T08:37:26.872Z,7.07
2018-06-11T08:39:55.260Z,9.37
2018-06-11T08:42:23.455Z,8.03
2018-06-11T08:44:51.684Z,7.57
2018-06-11T08:47:20.149Z,9.20
2018-06-11T08:49:48.354Z,7.97
2018-06-11T08:52:16.576Z,7.60
2018-06-11T08:54:44.585Z,7.53
2018-06-11T08:57:12.827Z,8.30
2018-06-11T08:59:41.091Z,8.70
2018-06-11T09:02:09.292Z,9.07
2018-06-11T09:04:37.499Z,7.93
2018-06-11T09:07:06.161Z,7.47
2018-06-11T09:09:34.441Z,8.73
2018-06-11T09:12:02.676Z,8.37
2018-06-11T09:14:30.643Z,10.63
2018-06-11T09:16:58.836Z,10.87
2018-06-11T09:19:27.043Z,10.53
2018-06-11T09:21:55.012Z,11.90
2018-06-11T09:24:23.208Z,9.53
2018-06-11T09:26:51.520Z,11.63
2018-06-11T09:29:19.729Z,12.17
2018-06-11T09:31:47.957Z,11.93
2018-06-11T09:34:16.132Z,12.10
2018-06-11T09:36:44.343Z,10.10
2018-06-11T09:39:12.563Z,9.07
2018-06-11T09:41:40.769Z,10.13
2018-06-11T09:44:08.997Z,10.60
2018-06-11T09:46:37.208Z,9.97
2018-06-11T09:49:05.553Z,8.10
2018-06-11T09:51:33.741Z,8.93
2018-06-11T09:54:01.952Z,10.77
2018-06-11T09:56:30.161Z,7.83
2018-06-11T09:58:58.396Z,10.07
2018-06-11T10:01:26.628Z,7.67
2018-06-11T10:03:54.821Z,8.53
2018-06-11T10:06:23.060Z,8.33
2018-06-11T10:08:51.303Z,7.13
2018-06-11T10:11:19.509Z,7.97
2018-06-11T10:13:48.204Z,8.47
2018-06-11T10:16:16.410Z,8.13
2018-06-11T10:18:44.628Z,6.80
2018-06-11T10:21:12.820Z,9.03
2018-06-11T10:23:41.057Z,9.83
2018-06-11T10:26:09.240Z,9.43
2018-06-11T10:28:37.444Z,9.50
2018-06-11T10:31:05.680Z,9.80
2018-06-11T10:33:33.636Z,7.90
2018-06-11T10:36:01.861Z,8.80
2018-06-11T10:38:30.068Z,6.83
2018-06-11T10:40:58.361Z,8.00
2018-06-11T10:43:26.579Z,7.37
2018-06-11T10:45:54.800Z,7.87
2018-06-11T10:48:23.040Z,8.03
2018-06-11T10:50:51.241Z,7.63
2018-06-11T10:53:19.435Z,7.20
2018-06-11T10:55:47.641Z,8.03
2018-06-11T10:58:15.848Z,7.53
2018-06-11T11:00:44.066Z,6.63
2018-06-11T11:03:12.280Z,8.17
2018-06-11T11:05:40.484Z,7.20
2018-06-11T11:08:08.720Z,7.93
2018-06-11T11:10:36.947Z,6.53
2018-06-11T11:13:05.208Z,7.67
2018-06-11T11:15:33.456Z,6.67
2018-06-11T11:18:01.669Z,5.57
2018-06-11T11:20:29.884Z,7.17
2018-06-11T11:22:58.099Z,5.73
2018-06-11T11:25:26.322Z,4.53
2018-06-11T11:27:54.540Z,5.17
2018-06-11T11:30:22.747Z,5.03
2018-06-11T11:32:50.948Z,8.63
2018-06-11T11:35:19.164Z,6.60
2018-06-11T11:37:47.393Z,6.27
2018-06-11T11:40:15.633Z,6.53
2018-06-11T11:42:43.836Z,7.00
2018-06-11T11:45:12.069Z,7.27
2018-06-11T11:47:40.280Z,6.40
2018-06-11T11:50:08.516Z,6.17
2018-06-11T11:52:37.256Z,7.97
2018-06-11T11:55:05.481Z,6.73
2018-06-11T11:57:33.677Z,8.13
2018-06-11T12:00:01.940Z,6.63
2018-06-11T12:02:30.144Z,8.03
2018-06-11T12:04:58.426Z,7.83
2018-06-11T12:07:26.632Z,8.70
2018-06-11T12:09:54.886Z,9.43
2018-06-11T12:12:23.074Z,7.33
2018-06-11T12:14:51.264Z,9.90
2018-06-11T12:17:19.460Z,8.23
2018-06-11T12:19:47.656Z,6.30
2018-06-11T12:22:15.874Z,8.23
2018-06-11T12:24:44.106Z,9.67
2018-06-11T12:27:12.284Z,9.93
2018-06-11T12:29:40.508Z,8.73
2018-06-11T12:32:08.770Z,6.63
2018-06-11T12:34:36.976Z,8.67
2018-06-11T12:37:05.173Z,8.73
2018-06-11T12:39:33.384Z,9.40
2018-06-11T12:42:01.592Z,6.87
2018-06-11T12:44:29.788Z,6.77
2018-06-11T12:46:57.996Z,7.60
2018-06-11T12:49:26.207Z,7.77
2018-06-11T12:51:54.424Z,6.93
2018-06-11T12:54:22.644Z,8.33
2018-06-11T12:56:50.861Z,7.43
2018-06-11T12:59:19.087Z,6.40
2018-06-11T13:01:47.296Z,6.77
2018-06-11T13:04:15.597Z,7.63
2018-06-11T13:06:43.824Z,7.97
2018-06-11T13:09:12.044Z,7.57
2018-06-11T13:11:40.294Z,8.13
2018-06-11T13:14:08.534Z,6.37
2018-06-11T13:16:36.744Z,6.33
2018-06-11T13:19:05.129Z,5.67
2018-06-11T13:21:34.399Z,7.43
2018-06-11T13:24:02.593Z,4.80
2018-06-11T13:26:30.796Z,5.07
2018-06-11T13:28:58.983Z,5.20
2018-06-11T13:31:27.200Z,5.50
2018-06-11T13:33:55.407Z,6.73
2018-06-11T13:36:23.660Z,4.83
2018-06-11T13:38:51.856Z,5.23
2018-06-11T13:41:20.072Z,8.10
2018-06-11T13:43:48.323Z,5.97
2018-06-11T13:46:16.510Z,5.67
2018-06-11T13:48:44.697Z,8.20
2018-06-11T13:51:12.914Z,4.73
2018-06-11T13:53:41.266Z,4.20
2018-06-11T13:56:09.459Z,5.07
2018-06-11T13:58:37.673Z,9.07
2018-06-11T14:01:05.905Z,6.17
2018-06-11T14:03:34.088Z,6.53
2018-06-11T14:06:02.313Z,4.97
2018-06-11T14:08:30.500Z,6.37
2018-06-11T14:10:58.736Z,7.17
2018-06-11T14:13:26.931Z,6.67
2018-06-11T14:15:55.116Z,8.23
2018-06-11T14:18:23.347Z,12.17
2018-06-11T14:20:51.605Z,5.93
2018-06-11T14:23:19.821Z,10.07
2018-06-11T14:25:48.062Z,8.23
2018-06-11T14:28:16.248Z,6.93
2018-06-11T14:30:44.465Z,10.97
2018-06-11T14:33:12.667Z,8.93
2018-06-11T14:35:40.872Z,11.33
2018-06-11T14:38:09.145Z,8.47
2018-06-11T14:40:37.339Z,7.53
2018-06-11T14:43:05.535Z,8.50
2018-06-11T14:45:33.741Z,10.20
2018-06-11T14:48:01.938Z,9.00
2018-06-11T14:50:31.001Z,11.73
2018-06-11T14:52:59.371Z,10.53
2018-06-11T14:55:27.559Z,10.10
2018-06-11T14:57:55.816Z,9.37
2018-06-11T15:00:24.044Z,7.33
2018-06-11T15:02:52.259Z,9.73
2018-06-11T15:05:20.472Z,7.03
2018-06-11T15:07:48.663Z,8.73
2018-06-11T15:10:16.895Z,8.33
2018-06-11T15:12:45.093Z,6.57
2018-06-11T15:15:13.303Z,9.60
2018-06-11T15:17:41.525Z,6.37
2018-06-11T15:20:09.756Z,7.20
2018-06-11T15:22:37.960Z,6.27
2018-06-11T15:25:06.272Z,9.47
2018-06-11T15:27:34.489Z,6.00
2018-06-11T15:30:02.701Z,7.07
2018-06-11T15:32:30.892Z,4.73
2018-06-11T15:34:59.180Z,8.50
2018-06-11T15:37:27.384Z,4.97
2018-06-11T15:39:55.604Z,9.30
2018-06-11T15:42:23.805Z,6.23
2018-06-11T15:44:51.747Z,5.87
2018-06-11T15:47:19.992Z,5.33
2018-06-11T15:49:48.336Z,5.57
2018-06-11T15:52:16.541Z,8.13
2018-06-11T15:54:44.761Z,7.90
2018-06-11T15:57:13.180Z,8.67
2018-06-11T15:59:41.429Z,10.87
2018-06-11T16:02:09.616Z,8.23
2018-06-11T16:04:37.853Z,10.87
2018-06-11T16:07:06.071Z,6.60
2018-06-11T16:09:34.025Z,11.60
2018-06-11T16:12:02.326Z,9.17
2018-06-11T16:16:49.674Z,8.57
2018-06-11T16:19:17.872Z,12.47
2018-06-11T16:21:46.086Z,8.83
2018-06-11T16:24:14.331Z,7.63
2018-06-11T16:26:42.555Z,9.13
2018-06-11T16:29:10.768Z,5.63
2018-06-11T16:31:38.986Z,7.87
2018-06-11T16:34:07.264Z,8.30
2018-06-11T16:36:35.476Z,6.80
2018-06-11T16:39:05.588Z,5.47
2018-06-11T16:41:34.845Z,9.47
2018-06-11T16:44:03.087Z,5.80
2018-06-11T16:46:31.421Z,4.87
2018-06-11T16:48:59.407Z,5.90
2018-06-11T16:51:27.613Z,9.67
2018-06-11T16:53:55.800Z,8.27
2018-06-11T16:56:24.111Z,7.50
2018-06-11T16:58:52.364Z,5.97
2018-06-11T17:01:20.585Z,5.10
2018-06-11T17:03:48.805Z,9.37
2018-06-11T17:06:17.144Z,5.37
2018-06-11T17:08:45.744Z,7.70
2018-06-11T17:11:13.960Z,6.47
2018-06-11T17:13:42.216Z,6.20
2018-06-11T17:16:10.431Z,3.43
2018-06-11T17:18:38.696Z,2.93
2018-06-11T17:21:06.887Z,5.47
2018-06-11T17:23:35.172Z,4.40
2018-06-11T17:26:03.460Z,4.70
2018-06-11T17:28:31.652Z,5.80
2018-06-11T17:30:59.880Z,3.83
2018-06-11T17:33:28.079Z,6.33
2018-06-11T17:35:56.320Z,6.57
2018-06-11T17:38:24.564Z,7.23
2018-06-11T17:40:52.773Z,5.67
2018-06-11T17:43:20.992Z,5.03
2018-06-11T17:45:49.213Z,5.87
2018-06-11T17:48:17.533Z,6.43
2018-06-11T17:50:45.724Z,4.57
2018-06-11T17:53:14.065Z,5.23
2018-06-11T17:55:42.308Z,4.93
2018-06-11T17:58:10.688Z,8.17
2018-06-11T18:00:38.905Z,5.60
2018-06-11T18:03:07.145Z,5.70
2018-06-11T18:05:35.465Z,5.50
2018-06-11T18:08:03.639Z,8.40
2018-06-11T18:10:31.867Z,5.63
2018-06-11T18:13:00.097Z,6.00
2018-06-11T18:15:28.344Z,8.53
2018-06-11T18:17:56.607Z,8.20
2018-06-11T18:20:24.845Z,6.43
2018-06-11T18:22:53.468Z,4.57
2018-06-11T18:25:21.775Z,5.23
2018-06-11T18:27:50.006Z,5.43
2018-06-11T18:30:18.258Z,4.27
2018-06-11T18:32:46.596Z,4.77
2018-06-11T18:35:14.568Z,5.83
2018-06-11T18:37:42.780Z,5.30
2018-06-11T18:40:11.026Z,4.67
2018-06-11T18:42:39.280Z,5.87
2018-06-11T18:45:07.513Z,4.77
2018-06-11T18:47:35.737Z,3.00
2018-06-11T18:50:04.117Z,3.37
2018-06-11T18:52:32.332Z,6.93
2018-06-11T18:55:00.572Z,2.80
2018-06-11T18:57:28.788Z,4.27
2018-06-11T18:59:57.064Z,4.53
2018-06-11T19:02:25.368Z,7.57
2018-06-11T19:04:53.623Z,4.53
2018-06-11T19:07:21.870Z,3.27
2018-06-11T19:09:50.541Z,4.67
2018-06-11T19:12:18.778Z,2.70
2018-06-11T19:14:47.119Z,2.10
2018-06-11T19:17:15.510Z,2.93
2018-06-11T19:19:43.935Z,3.43
2018-06-11T19:22:12.252Z,2.43
2018-06-11T19:24:40.548Z,4.37
2018-06-11T19:27:08.824Z,2.63
2018-06-11T19:29:37.061Z,4.60
2018-06-11T19:32:05.418Z,3.33
2018-06-11T19:34:33.686Z,3.30
2018-06-11T19:37:01.901Z,3.20
2018-06-11T19:39:30.148Z,2.93
2018-06-11T19:41:58.368Z,3.13
2018-06-11T19:44:26.598Z,3.00
2018-06-11T19:46:54.776Z,6.27
2018-06-11T19:49:22.972Z,5.63
2018-06-11T19:51:51.162Z,3.70
2018-06-11T19:54:19.544Z,6.00
2018-06-11T19:56:47.708Z,3.63
2018-06-11T19:59:15.926Z,3.27
2018-06-11T20:01:44.199Z,3.53
2018-06-11T20:04:12.398Z,2.77
2018-06-11T20:06:40.696Z,2.57
2018-06-11T20:09:08.964Z,2.57
2018-06-11T20:11:37.280Z,3.00
2018-06-11T20:14:05.487Z,4.63
2018-06-11T20:16:33.697Z,3.10
2018-06-11T20:19:01.904Z,2.70
2018-06-11T20:21:30.112Z,3.07
2018-06-11T20:23:58.404Z,3.50
2018-06-11T20:26:26.605Z,6.03
2018-06-11T20:28:54.795Z,3.27
2018-06-11T20:31:23.048Z,3.10
2018-06-11T20:33:51.245Z,3.43
2018-06-11T20:36:19.471Z,4.93
2018-06-11T20:38:47.664Z,8.07
2018-06-11T20:41:15.886Z,4.63
2018-06-11T20:43:44.076Z,4.87
2018-06-11T20:46:12.289Z,3.17
2018-06-11T20:48:40.508Z,3.37
2018-06-11T20:51:08.727Z,3.23
2018-06-11T20:53:36.930Z,5.70
2018-06-11T20:56:05.176Z,5.63
2018-06-11T20:58:33.376Z,5.20
2018-06-11T21:01:01.605Z,5.30
2018-06-11T21:03:29.827Z,3.63
2018-06-11T21:05:58.016Z,4.27
2018-06-11T21:08:26.268Z,4.43
2018-06-11T21:10:54.535Z,3.43
2018-06-11T21:13:22.760Z,3.63
2018-06-11T21:15:51.028Z,3.83
2018-06-11T21:18:19.206Z,5.60
2018-06-11T21:20:47.388Z,4.43
2018-06-11T21:23:15.720Z,3.83
2018-06-11T21:25:44.096Z,5.73
2018-06-11T21:28:12.297Z,5.67
2018-06-11T21:30:40.516Z,6.33
2018-06-11T21:33:08.709Z,5.80
2018-06-11T21:35:36.908Z,6.10
2018-06-11T21:38:05.696Z,6.27
2018-06-11T21:40:33.647Z,7.20
2018-06-11T21:43:01.980Z,6.90
2018-06-11T21:45:30.191Z,9.20
2018-06-11T21:47:58.413Z,10.40
2018-06-11T21:50:26.623Z,9.93
2018-06-11T21:52:54.840Z,12.47
2018-06-11T21:55:23.060Z,7.50
2018-06-11T21:57:51.320Z,12.00
2018-06-11T22:00:19.600Z,12.13
2018-06-11T22:02:47.796Z,10.93
2018-06-11T22:05:16.493Z,7.87
2018-06-11T22:07:44.706Z,9.33
2018-06-11T22:10:12.908Z,12.30
2018-06-11T22:12:41.124Z,11.13
2018-06-11T22:15:09.340Z,12.07
2018-06-11T22:17:37.560Z,13.47
2018-06-11T22:20:05.766Z,11.97
2018-06-11T22:22:34.045Z,14.77
2018-06-11T22:25:02.257Z,12.20
2018-06-11T22:27:30.470Z,11.47
2018-06-11T22:29:58.664Z,12.43
2018-06-11T22:32:26.900Z,13.97
2018-06-11T22:34:55.112Z,18.00
2018-06-11T22:37:23.863Z,17.07
2018-06-11T22:39:52.120Z,16.83
2018-06-11T22:42:20.316Z,24.00
2018-06-11T22:44:48.515Z,24.30
2018-06-11T22:47:16.733Z,17.03
2018-06-11T22:49:44.918Z,21.33
2018-06-11T22:52:13.172Z,21.13
2018-06-11T22:54:41.379Z,25.17
2018-06-11T22:57:09.576Z,30.60
2018-06-11T22:59:37.831Z,28.27
2018-06-11T23:02:06.060Z,22.60
2018-06-11T23:04:34.303Z,27.00
2018-06-11T23:07:02.521Z,24.17
2018-06-11T23:09:30.728Z,24.93
2018-06-11T23:11:58.920Z,21.93
2018-06-11T23:14:26.892Z,23.23
2018-06-11T23:16:55.082Z,24.33
2018-06-11T23:19:23.332Z,26.33
2018-06-11T23:21:51.559Z,32.70
2018-06-11T23:24:19.764Z,29.10
2018-06-11T23:26:47.972Z,42.47
2018-06-11T23:29:16.205Z,39.17
2018-06-11T23:31:44.429Z,37.23
2018-06-11T23:34:12.653Z,30.60
2018-06-11T23:36:40.855Z,25.40
2018-06-11T23:39:09.086Z,23.77
2018-06-11T23:41:54.180Z,22.17
2018-06-11T23:47:30.282Z,21.33
2018-06-11T23:50:04.644Z,20.20
2018-06-11T23:52:32.885Z,23.07
2018-06-11T23:55:01.101Z,21.50
2018-06-11T23:57:29.336Z,21.57
2018-06-11T23:59:57.545Z,19.93
